Time;durP1;ratioP1;P1;durP2;ratioP2;P2;SDS_P1;SDS_P2;PMS_P1;PMS_P2;Temp;Humidity;BMP_temperature;BMP_pressure;BME280_temperature;BME280_humidity;BME280_pressure;Samples;Min_cycle;Max_cycle;Signal;HPM_P1;HPM_P2
2022/10/30 00:01:11;;;;;;;55.38;11.60;;;11.50;99.90;;;;;;5200075;28;20029;-74
2022/10/30 00:04:02;;;;;;;62.95;11.65;;;11.50;99.90;;;;;;5185066;28;20043;-74
2022/10/30 00:06:54;;;;;;;39.25;11.55;;;11.50;99.90;;;;;;5172254;28;20045;-74
2022/10/30 00:09:45;;;;;;;45.90;10.13;;;11.40;99.90;;;;;;5196179;28;20042;-74
2022/10/30 00:12:39;;;;;;;23.55;9.60;;;11.40;99.90;;;;;;5201631;28;20218;-75
2022/10/30 00:15:37;;;;;;;41.67;10.45;;;11.40;99.90;;;;;;5199942;28;20031;-74
2022/10/30 00:18:29;;;;;;;38.67;11.10;;;11.40;99.90;;;;;;5184327;28;20026;-74
2022/10/30 00:21:20;;;;;;;101.82;12.05;;;11.40;99.90;;;;;;5204419;28;20029;-75
2022/10/30 00:24:14;;;;;;;74.55;10.68;;;11.30;99.90;;;;;;5204022;28;20033;-74
2022/10/30 00:27:09;;;;;;;45.05;10.20;;;11.30;99.90;;;;;;5197697;28;20037;-74
2022/10/30 00:30:03;;;;;;;65.53;10.60;;;11.30;99.90;;;;;;5200970;28;20025;-75
2022/10/30 00:32:54;;;;;;;79.53;11.82;;;11.30;99.90;;;;;;5167107;28;20040;-75
2022/10/30 00:35:51;;;;;;;28.35;9.52;;;11.30;99.90;;;;;;5201405;28;20037;-74
2022/10/30 00:38:43;;;;;;;39.05;10.00;;;11.30;99.90;;;;;;5204308;28;20032;-73
2022/10/30 00:41:35;;;;;;;44.13;10.80;;;11.40;99.90;;;;;;5204163;28;20031;-75
2022/10/30 00:44:42;;;;;;;63.92;10.60;;;11.30;99.90;;;;;;5188887;28;20033;-72
2022/10/30 00:47:40;;;;;;;22.95;11.13;;;11.30;99.90;;;;;;5184888;28;20026;-72
2022/10/30 00:50:37;;;;;;;26.90;10.93;;;11.40;99.90;;;;;;5202665;28;20036;-74
2022/10/30 00:53:29;;;;;;;32.85;10.25;;;11.40;99.90;;;;;;5183899;28;20040;-75
2022/10/30 00:56:21;;;;;;;28.75;10.60;;;11.40;99.90;;;;;;5201924;28;20030;-74
2022/10/30 00:59:21;;;;;;;27.90;9.63;;;11.30;99.90;;;;;;5203723;28;20033;-74
2022/10/30 01:02:13;;;;;;;66.43;9.60;;;11.30;99.90;;;;;;5205667;28;20284;-75
2022/10/30 01:05:05;;;;;;;27.77;9.98;;;11.30;99.90;;;;;;5192162;28;20053;-75
2022/10/30 01:07:57;;;;;;;47.30;10.05;;;11.30;99.90;;;;;;5192178;28;20033;-75
2022/10/30 01:10:51;;;;;;;38.65;9.02;;;11.30;99.90;;;;;;5204035;28;20031;-75
2022/10/30 01:13:46;;;;;;;31.27;9.70;;;11.20;99.90;;;;;;5203481;28;20345;-74
2022/10/30 01:16:43;;;;;;;40.10;9.90;;;11.20;99.90;;;;;;5202879;28;20034;-75
2022/10/30 01:19:53;;;;;;;61.30;9.55;;;11.20;99.90;;;;;;5204454;28;20039;-75
2022/10/30 01:23:08;;;;;;;55.78;9.52;;;11.20;99.90;;;;;;5200389;28;20033;-74
2022/10/30 01:26:18;;;;;;;55.63;10.40;;;11.10;99.90;;;;;;5203206;28;20017;-74
2022/10/30 01:29:30;;;;;;;23.42;8.77;;;11.10;99.90;;;;;;5189645;28;20583;-75
2022/10/30 01:32:50;;;;;;;58.72;9.20;;;11.10;99.90;;;;;;5202876;28;20060;-73
2022/10/30 01:36:05;;;;;;;21.58;8.23;;;11.00;99.90;;;;;;5204237;28;20033;-76
2022/10/30 01:39:14;;;;;;;13.13;8.70;;;11.00;99.90;;;;;;5185743;28;20029;-73
2022/10/30 01:42:27;;;;;;;24.73;9.43;;;10.90;99.90;;;;;;5205077;28;20243;-73
2022/10/30 01:45:40;;;;;;;28.17;9.18;;;10.90;99.90;;;;;;5201056;28;20025;-74
2022/10/30 01:48:53;;;;;;;16.15;8.13;;;10.80;99.90;;;;;;5181699;28;20030;-73
2022/10/30 01:52:02;;;;;;;15.55;7.50;;;10.70;99.90;;;;;;5202619;28;20049;-75
2022/10/30 01:55:38;;;;;;;23.00;7.80;;;10.50;99.90;;;;;;5199136;28;20041;-73
2022/10/30 01:59:02;;;;;;;24.02;7.70;;;10.40;99.90;;;;;;5179541;28;20047;-74
2022/10/30 02:01:54;;;;;;;18.90;7.20;;;10.50;99.90;;;;;;5202068;28;20049;-75
2022/10/30 02:04:46;;;;;;;15.27;6.25;;;10.40;99.90;;;;;;5191889;28;20096;-73
2022/10/30 02:07:46;;;;;;;22.58;6.72;;;10.40;99.90;;;;;;5183244;28;20030;-73
2022/10/30 02:10:42;;;;;;;11.40;6.00;;;10.40;99.90;;;;;;5183824;28;20064;-74
2022/10/30 02:13:34;;;;;;;15.80;6.43;;;10.40;99.90;;;;;;5182173;28;20030;-74
2022/10/30 02:16:28;;;;;;;8.35;6.05;;;10.30;99.90;;;;;;5204495;28;20357;-73
2022/10/30 02:19:22;;;;;;;8.35;5.82;;;10.30;99.90;;;;;;5183200;28;20021;-75
2022/10/30 02:22:13;;;;;;;8.18;6.15;;;10.20;99.90;;;;;;5204670;28;20029;-72
2022/10/30 02:25:05;;;;;;;9.73;5.88;;;10.20;99.90;;;;;;5203355;28;20088;-73
2022/10/30 02:27:57;;;;;;;11.85;5.78;;;10.20;99.90;;;;;;5202648;28;20031;-74
2022/10/30 02:30:51;;;;;;;15.25;6.72;;;10.10;99.90;;;;;;5201297;28;20028;-71
2022/10/30 02:33:46;;;;;;;11.15;5.72;;;10.10;99.90;;;;;;5199681;28;20425;-76
2022/10/30 02:36:38;;;;;;;;;;;10.00;99.90;;;;;;5181506;28;20040;-73
2022/10/30 02:39:29;;;;;;;6.97;5.68;;;9.90;99.90;;;;;;5182267;28;19909;-72
2022/10/30 02:42:29;;;;;;;8.05;5.28;;;9.90;99.90;;;;;;5181723;28;20030;-74
2022/10/30 02:45:21;;;;;;;7.18;5.10;;;10.00;99.90;;;;;;5196434;28;20246;-73
2022/10/30 02:48:15;;;;;;;7.07;4.95;;;9.90;99.90;;;;;;5185905;28;20033;-75
2022/10/30 02:51:06;;;;;;;7.18;5.97;;;10.00;99.90;;;;;;5201629;28;20025;-73
2022/10/30 02:53:59;;;;;;;7.25;5.47;;;10.00;99.90;;;;;;5201585;28;20116;-74
2022/10/30 02:56:50;;;;;;;5.72;4.35;;;10.00;99.90;;;;;;5203172;28;20031;-74
2022/10/30 02:59:42;;;;;;;7.22;5.30;;;10.00;99.90;;;;;;5182665;28;20026;-74
2022/10/30 03:02:38;;;;;;;6.63;5.10;;;10.10;99.90;;;;;;5200243;28;20025;-74
2022/10/30 03:05:30;;;;;;;7.45;5.57;;;10.10;99.90;;;;;;5188117;28;20049;-74
2022/10/30 03:08:23;;;;;;;6.45;5.35;;;10.10;99.90;;;;;;5195964;28;20040;-74
2022/10/30 03:11:19;;;;;;;8.70;5.65;;;10.10;99.90;;;;;;5174211;28;20030;-73
2022/10/30 03:14:11;;;;;;;9.50;6.20;;;10.00;99.90;;;;;;5181300;28;20033;-74
2022/10/30 03:17:03;;;;;;;10.95;6.80;;;10.10;99.90;;;;;;5201173;28;20029;-73
2022/10/30 03:19:54;;;;;;;13.80;7.28;;;10.00;99.90;;;;;;5199957;28;20025;-73
2022/10/30 03:22:46;;;;;;;8.45;5.93;;;10.00;99.90;;;;;;5180461;28;20029;-74
2022/10/30 03:25:40;;;;;;;8.40;5.50;;;10.00;99.90;;;;;;5198164;28;20025;-73
2022/10/30 03:28:31;;;;;;;21.95;5.80;;;9.90;99.90;;;;;;5201087;28;20327;-74
2022/10/30 03:31:24;;;;;;;13.23;5.70;;;10.00;99.90;;;;;;5159553;28;20203;-73
2022/10/30 03:34:16;;;;;;;14.43;6.70;;;10.00;99.90;;;;;;5165536;28;20247;-74
2022/10/30 03:37:10;;;;;;;14.88;5.97;;;10.00;99.90;;;;;;5179314;28;20021;-72
2022/10/30 03:40:01;;;;;;;7.43;5.40;;;10.10;99.90;;;;;;5183365;28;20033;-73
2022/10/30 03:42:53;;;;;;;84.28;7.05;;;10.10;99.90;;;;;;5188318;28;20026;-73
2022/10/30 03:45:54;;;;;;;25.05;5.70;;;10.20;99.90;;;;;;5182891;28;20043;-72
2022/10/30 03:48:49;;;;;;;52.03;6.72;;;10.20;99.90;;;;;;5182859;28;20025;-73
2022/10/30 03:51:43;;;;;;;26.13;6.47;;;10.20;99.90;;;;;;5198437;28;20056;-72
2022/10/30 03:54:35;;;;;;;11.35;6.03;;;10.20;99.90;;;;;;5200613;28;20042;-73
2022/10/30 03:57:28;;;;;;;21.95;6.03;;;10.20;99.90;;;;;;5191534;28;20025;-72
2022/10/30 04:00:20;;;;;;;13.40;5.65;;;10.10;99.90;;;;;;5200415;28;20234;-73
2022/10/30 04:03:14;;;;;;;30.05;6.00;;;10.10;99.90;;;;;;5204172;28;20045;-73
2022/10/30 04:06:06;;;;;;;12.63;5.32;;;10.10;99.90;;;;;;5178719;28;20329;-72
2022/10/30 04:08:58;;;;;;;6.85;5.32;;;10.10;99.90;;;;;;5187598;28;20306;-72
2022/10/30 04:11:49;;;;;;;7.28;5.07;;;10.10;99.90;;;;;;5185013;28;20301;-71
2022/10/30 04:14:40;;;;;;;22.50;6.18;;;10.10;99.90;;;;;;5169866;28;20242;-73
2022/10/30 04:17:40;;;;;;;30.42;5.70;;;10.10;99.90;;;;;;5186336;28;20036;-74
2022/10/30 04:20:34;;;;;;;14.70;4.55;;;10.00;99.90;;;;;;5184417;28;20279;-72
2022/10/30 04:23:28;;;;;;;23.63;5.35;;;10.00;99.90;;;;;;5204160;28;20223;-74
2022/10/30 04:26:19;;;;;;;7.35;4.90;;;10.00;99.90;;;;;;5203538;28;20035;-74
2022/10/30 04:29:11;;;;;;;24.73;5.15;;;10.00;99.90;;;;;;5188523;28;20044;-73
2022/10/30 04:32:02;;;;;;;31.85;4.45;;;10.00;99.90;;;;;;5187976;28;20031;-72
2022/10/30 04:34:54;;;;;;;24.58;5.25;;;10.00;99.90;;;;;;5204663;28;20199;-72
2022/10/30 04:37:59;;;;;;;26.33;5.50;;;10.00;99.90;;;;;;5184128;28;20029;-72
2022/10/30 04:40:53;;;;;;;23.77;5.18;;;10.00;99.90;;;;;;5185298;28;20029;-74
2022/10/30 04:43:52;;;;;;;21.15;4.80;;;10.00;99.90;;;;;;5201414;28;20025;-71
2022/10/30 04:46:44;;;;;;;40.25;5.90;;;10.00;99.90;;;;;;5203336;28;20311;-75
2022/10/30 04:49:38;;;;;;;13.43;5.38;;;10.00;99.90;;;;;;5204428;28;20037;-72
2022/10/30 04:52:32;;;;;;;9.35;4.88;;;10.00;99.90;;;;;;5204886;28;20017;-74
2022/10/30 04:55:26;;;;;;;10.38;5.03;;;9.90;99.90;;;;;;5204449;28;20359;-74
2022/10/30 04:58:17;;;;;;;12.77;5.18;;;9.80;99.90;;;;;;5203211;28;20311;-74
2022/10/30 05:01:12;;;;;;;43.38;5.88;;;9.80;99.90;;;;;;5189891;28;20037;-74
2022/10/30 05:04:09;;;;;;;21.58;5.10;;;9.80;99.90;;;;;;5201158;28;20040;-74
2022/10/30 05:07:02;;;;;;;54.67;4.82;;;9.80;99.90;;;;;;5170725;28;20267;-74
2022/10/30 05:09:53;;;;;;;21.70;4.95;;;9.80;99.90;;;;;;5198084;28;20075;-74
2022/10/30 05:12:47;;;;;;;31.70;4.22;;;9.90;99.90;;;;;;5197511;28;20349;-72
2022/10/30 05:15:41;;;;;;;15.70;4.57;;;9.80;99.90;;;;;;5182000;28;20041;-72
2022/10/30 05:18:38;;;;;;;27.40;4.65;;;9.90;99.90;;;;;;5203008;28;20029;-73
2022/10/30 05:21:31;;;;;;;26.35;5.78;;;9.90;99.90;;;;;;5198752;28;20344;-76
2022/10/30 05:24:23;;;;;;;15.65;4.03;;;9.80;99.90;;;;;;5188459;28;20027;-73
2022/10/30 05:27:14;;;;;;;37.03;5.45;;;9.90;99.90;;;;;;5201829;28;20030;-75
2022/10/30 05:30:09;;;;;;;47.50;6.05;;;9.80;99.90;;;;;;5186920;28;20617;-75
2022/10/30 05:33:03;;;;;;;28.33;5.35;;;9.80;99.90;;;;;;5201424;28;20033;-73
2022/10/30 05:35:54;;;;;;;25.75;5.20;;;9.70;99.90;;;;;;5186988;28;20045;-75
2022/10/30 05:38:48;;;;;;;18.10;5.38;;;9.70;99.90;;;;;;5183602;28;20032;-75
2022/10/30 05:41:42;;;;;;;23.90;5.13;;;9.80;99.90;;;;;;5174780;28;20060;-75
2022/10/30 05:44:36;;;;;;;33.55;4.80;;;9.80;99.90;;;;;;5189215;28;20038;-73
2022/10/30 05:47:27;;;;;;;24.75;5.28;;;9.80;99.90;;;;;;5202399;28;20028;-75
2022/10/30 05:50:18;;;;;;;10.15;5.13;;;9.90;99.90;;;;;;5194605;28;20090;-74
2022/10/30 05:53:12;;;;;;;24.23;4.82;;;9.90;99.90;;;;;;5201872;28;20044;-74
2022/10/30 05:56:04;;;;;;;26.63;4.97;;;9.90;99.90;;;;;;5202116;28;20048;-73
2022/10/30 05:59:00;;;;;;;26.23;4.75;;;9.80;99.90;;;;;;5203750;28;20029;-73
2022/10/30 06:01:51;;;;;;;29.77;5.30;;;9.80;99.90;;;;;;5201660;28;20162;-72
2022/10/30 06:04:43;;;;;;;64.07;4.95;;;9.70;99.90;;;;;;5193116;28;20057;-74
2022/10/30 06:07:34;;;;;;;22.48;5.03;;;9.70;99.90;;;;;;5194186;28;20158;-73
2022/10/30 06:10:26;;;;;;;9.77;5.55;;;9.70;99.90;;;;;;5200714;28;20037;-73
2022/10/30 06:13:17;;;;;;;22.45;5.30;;;9.80;99.90;;;;;;5179646;28;20036;-76
2022/10/30 06:16:14;;;;;;;37.13;5.32;;;9.80;99.90;;;;;;5194946;28;20033;-72
2022/10/30 06:19:06;;;;;;;24.52;5.03;;;9.80;99.90;;;;;;5201225;28;20204;-73
2022/10/30 06:21:59;;;;;;;34.40;5.80;;;9.80;99.90;;;;;;5187785;28;20025;-73
2022/10/30 06:24:53;;;;;;;15.07;5.07;;;9.80;99.90;;;;;;5201374;28;20234;-73
2022/10/30 06:27:46;;;;;;;17.88;5.82;;;9.90;99.90;;;;;;5202121;28;20033;-75
2022/10/30 06:30:38;;;;;;;37.58;5.32;;;10.00;99.90;;;;;;5182050;28;20040;-74
2022/10/30 06:33:29;;;;;;;8.63;4.00;;;10.10;99.90;;;;;;5174071;28;20030;-73
2022/10/30 06:36:23;;;;;;;45.47;5.10;;;10.00;99.90;;;;;;5182720;28;20044;-73
2022/10/30 06:39:17;;;;;;;27.55;5.07;;;10.10;99.90;;;;;;5199285;28;20051;-74
2022/10/30 06:42:09;;;;;;;14.90;4.82;;;10.20;99.90;;;;;;5202019;28;20424;-73
2022/10/30 06:45:03;;;;;;;23.65;5.07;;;10.20;99.90;;;;;;5203084;28;20225;-73
2022/10/30 06:47:56;;;;;;;29.85;5.72;;;10.20;99.90;;;;;;5201515;28;20039;-74
2022/10/30 06:50:59;;;;;;;16.40;5.60;;;10.20;99.90;;;;;;5185628;28;20033;-73
2022/10/30 06:53:53;;;;;;;18.23;7.00;;;10.20;99.90;;;;;;5200852;28;20025;-73
2022/10/30 06:56:49;;;;;;;29.27;7.00;;;10.30;99.90;;;;;;5203162;28;20346;-74
2022/10/30 06:59:40;;;;;;;15.30;7.13;;;10.30;99.90;;;;;;5201636;28;20226;-73
2022/10/30 07:02:34;;;;;;;19.40;7.05;;;10.50;99.90;;;;;;5201136;28;20068;-74
2022/10/30 07:05:26;;;;;;;15.50;6.97;;;10.30;99.90;;;;;;5189841;28;20049;-75
2022/10/30 07:08:20;;;;;;;29.77;6.93;;;10.50;99.90;;;;;;5200223;28;20025;-74
2022/10/30 07:11:15;;;;;;;16.13;6.95;;;10.50;99.90;;;;;;5202818;28;20243;-72
2022/10/30 07:14:12;;;;;;;29.75;7.05;;;10.50;99.90;;;;;;5185060;28;20040;-73
2022/10/30 07:17:06;;;;;;;19.20;6.82;;;10.40;99.90;;;;;;5186335;28;20227;-73
2022/10/30 07:19:59;;;;;;;11.10;6.55;;;10.50;99.90;;;;;;5202564;28;20029;-73
2022/10/30 07:22:53;;;;;;;10.13;6.15;;;10.60;99.90;;;;;;5184126;28;20040;-74
2022/10/30 07:25:45;;;;;;;13.60;6.47;;;10.60;99.90;;;;;;5181968;28;20033;-74
2022/10/30 07:28:39;;;;;;;14.23;6.32;;;10.50;99.90;;;;;;5197496;28;20254;-75
2022/10/30 07:31:31;;;;;;;18.57;5.87;;;10.60;99.90;;;;;;5181255;28;20374;-72
2022/10/30 07:34:22;;;;;;;15.35;4.15;;;10.40;99.90;;;;;;5180299;28;20436;-73
2022/10/30 07:37:19;;;;;;;18.30;4.80;;;10.50;99.90;;;;;;5181484;28;20038;-75
2022/10/30 07:40:13;;;;;;;6.47;4.43;;;10.60;99.90;;;;;;5181523;28;20022;-73
2022/10/30 07:43:06;;;;;;;5.43;4.18;;;10.60;99.90;;;;;;5180711;28;20139;-72
2022/10/30 07:45:57;;;;;;;5.30;4.25;;;10.80;99.90;;;;;;5198015;28;20314;-73
2022/10/30 07:48:49;;;;;;;9.60;4.93;;;11.00;99.90;;;;;;5201247;28;20039;-74
2022/10/30 07:51:40;;;;;;;13.38;4.75;;;11.10;99.90;;;;;;5201096;28;20032;-75
2022/10/30 07:54:34;;;;;;;10.77;4.15;;;11.30;99.90;;;;;;5200922;28;20035;-75
2022/10/30 07:57:26;;;;;;;11.80;4.47;;;11.40;99.90;;;;;;5201671;28;20238;-72
2022/10/30 08:00:18;;;;;;;5.10;3.85;;;11.60;99.90;;;;;;5201257;28;20238;-73
2022/10/30 08:03:10;;;;;;;11.68;5.65;;;11.90;99.90;;;;;;5201736;28;20326;-73
2022/10/30 08:06:02;;;;;;;7.72;4.75;;;12.10;99.90;;;;;;5189172;28;20572;-72
2022/10/30 08:08:53;;;;;;;15.77;5.53;;;12.30;99.90;;;;;;5196382;28;20021;-74
2022/10/30 08:11:45;;;;;;;12.13;5.40;;;12.30;99.90;;;;;;5201147;28;20215;-72
2022/10/30 08:14:36;;;;;;;14.88;5.10;;;12.50;99.90;;;;;;5200940;28;20017;-72
2022/10/30 08:17:30;;;;;;;8.43;5.32;;;12.60;99.90;;;;;;5198344;28;20029;-74
2022/10/30 08:20:23;;;;;;;10.45;5.53;;;12.60;99.90;;;;;;5181680;28;20530;-73
2022/10/30 08:23:16;;;;;;;11.27;5.65;;;12.60;99.90;;;;;;5200474;28;20637;-73
2022/10/30 08:26:07;;;;;;;12.23;5.13;;;12.70;99.90;;;;;;5200237;28;20211;-73
2022/10/30 08:29:01;;;;;;;10.10;5.00;;;12.70;99.90;;;;;;5199801;28;20353;-74
2022/10/30 08:31:53;;;;;;;17.02;5.82;;;12.70;99.90;;;;;;5199747;28;20032;-74
2022/10/30 08:34:46;;;;;;;28.30;5.93;;;12.60;99.90;;;;;;5199960;28;20055;-73
2022/10/30 08:37:38;;;;;;;6.88;5.50;;;12.60;99.90;;;;;;5202706;28;20330;-73
2022/10/30 08:40:29;;;;;;;15.55;6.15;;;12.70;99.90;;;;;;5181976;28;20303;-73
2022/10/30 08:43:22;;;;;;;9.60;5.75;;;12.60;99.90;;;;;;5202989;28;20025;-73
2022/10/30 08:46:13;;;;;;;19.17;5.82;;;12.50;99.90;;;;;;5203743;28;20059;-74
2022/10/30 08:49:08;;;;;;;16.73;5.88;;;12.70;99.90;;;;;;5209556;28;20234;-73
2022/10/30 08:52:00;;;;;;;9.82;5.43;;;12.70;99.90;;;;;;5209333;28;20084;-73
2022/10/30 08:54:53;;;;;;;20.83;5.50;;;12.90;99.90;;;;;;5224973;28;20029;-74
2022/10/30 08:57:45;;;;;;;20.23;5.20;;;12.90;99.90;;;;;;5225687;28;20029;-74
2022/10/30 09:00:38;;;;;;;12.05;5.63;;;12.70;99.90;;;;;;5203943;28;20043;-73
2022/10/30 09:03:35;;;;;;;8.45;5.05;;;12.60;99.90;;;;;;5178568;28;20269;-72
2022/10/30 09:06:26;;;;;;;9.25;5.10;;;12.80;99.90;;;;;;5190194;28;20059;-73
2022/10/30 09:09:20;;;;;;;8.00;5.57;;;13.00;99.90;;;;;;5199275;28;20017;-73
2022/10/30 09:12:12;;;;;;;9.20;6.03;;;13.00;99.90;;;;;;5204551;28;20025;-74
2022/10/30 09:15:04;;;;;;;19.23;6.15;;;13.00;99.90;;;;;;5188380;28;20024;-75
2022/10/30 09:17:58;;;;;;;9.48;5.63;;;13.00;99.90;;;;;;5185919;28;20029;-74
2022/10/30 09:20:54;;;;;;;8.15;5.97;;;13.00;99.90;;;;;;5183872;28;20069;-74
2022/10/30 09:23:48;;;;;;;18.00;6.43;;;13.10;99.90;;;;;;5190242;28;20176;-73
2022/10/30 09:26:40;;;;;;;11.70;6.10;;;13.20;99.90;;;;;;5203688;28;20369;-73
2022/10/30 09:29:31;;;;;;;24.63;5.50;;;13.10;99.90;;;;;;5183660;28;20353;-73
2022/10/30 09:32:23;;;;;;;17.65;5.63;;;13.00;99.90;;;;;;5202947;28;20036;-75
2022/10/30 09:35:19;;;;;;;10.18;5.38;;;13.10;99.90;;;;;;5188379;28;20041;-75
2022/10/30 09:38:11;;;;;;;27.60;6.47;;;13.20;99.90;;;;;;5195226;28;20018;-74
2022/10/30 09:41:23;;;;;;;12.05;6.15;;;13.30;99.90;;;;;;5191257;28;20043;-74
2022/10/30 09:44:39;;;;;;;10.60;5.47;;;13.50;99.90;;;;;;5222454;28;20313;-74
2022/10/30 09:48:00;;;;;;;8.98;6.18;;;13.60;99.90;;;;;;5221985;28;20021;-72
2022/10/30 09:51:21;;;;;;;7.78;6.30;;;13.80;99.90;;;;;;5207187;28;20330;-74
2022/10/30 09:54:50;;;;;;;8.40;6.50;;;14.10;99.90;;;;;;5208437;28;20039;-73
2022/10/30 09:58:04;;;;;;;19.95;6.93;;;14.10;99.90;;;;;;5203733;28;20041;-73
2022/10/30 10:01:15;;;;;;;12.70;6.85;;;14.10;99.90;;;;;;5186072;28;20239;-73
2022/10/30 10:04:24;;;;;;;8.70;6.18;;;14.10;99.90;;;;;;5203895;28;20033;-73
2022/10/30 10:07:28;;;;;;;9.15;6.80;;;14.30;99.90;;;;;;5171293;28;20355;-75
2022/10/30 10:10:31;;;;;;;10.23;6.90;;;14.50;99.90;;;;;;5201461;28;20354;-75
2022/10/30 10:13:37;;;;;;;12.55;6.43;;;14.40;99.90;;;;;;5196828;28;20035;-75
2022/10/30 10:16:34;;;;;;;11.38;6.68;;;14.30;99.90;;;;;;5202951;28;20025;-75
2022/10/30 10:19:43;;;;;;;8.88;7.18;;;14.40;99.90;;;;;;5189006;28;20212;-73
2022/10/30 10:22:50;;;;;;;8.00;6.68;;;14.30;99.90;;;;;;5199003;28;20032;-74
2022/10/30 10:25:50;;;;;;;9.57;6.50;;;14.20;99.90;;;;;;5188473;28;20040;-74
2022/10/30 10:28:56;;;;;;;9.55;6.47;;;14.20;99.90;;;;;;5168649;28;20034;-75
2022/10/30 10:32:16;;;;;;;9.15;6.55;;;14.20;99.90;;;;;;5182698;28;20230;-74
2022/10/30 10:35:25;;;;;;;9.05;6.57;;;14.60;99.90;;;;;;5195217;28;20036;-74
2022/10/30 10:38:25;;;;;;;8.98;7.10;;;14.80;99.90;;;;;;5196671;28;20013;-75
2022/10/30 10:41:52;;;;;;;9.73;7.25;;;14.80;99.90;;;;;;5203014;28;20013;-73
2022/10/30 10:44:49;;;;;;;;;;;14.40;99.90;;;;;;5202322;28;20037;-75
2022/10/30 10:47:54;;;;;;;11.23;8.10;;;14.50;99.90;;;;;;5190779;28;19909;-74
2022/10/30 10:51:01;;;;;;;9.40;7.40;;;14.20;99.90;;;;;;5201645;28;20035;-75
2022/10/30 10:54:38;;;;;;;7.82;6.85;;;14.30;99.90;;;;;;5187271;28;20033;-73
2022/10/30 10:57:33;;;;;;;;;;;14.50;99.90;;;;;;5159430;28;20164;-75
2022/10/30 11:00:30;;;;;;;12.70;10.05;;;14.60;99.90;;;;;;5126979;28;19910;-75
2022/10/30 11:03:30;;;;;;;13.05;9.77;;;14.50;99.90;;;;;;5137921;28;20038;-74
2022/10/30 11:06:34;;;;;;;10.98;8.68;;;14.40;99.90;;;;;;5126130;28;20070;-74
2022/10/30 11:09:27;;;;;;;9.75;8.30;;;14.70;99.90;;;;;;5138899;28;20027;-73
2022/10/30 11:12:25;;;;;;;9.95;7.70;;;14.80;99.90;;;;;;5125259;28;20022;-73
2022/10/30 11:15:33;;;;;;;11.57;7.90;;;14.70;99.90;;;;;;5103567;29;20064;-74
2022/10/30 11:18:27;;;;;;;9.65;7.43;;;14.30;99.90;;;;;;5114436;29;20250;-75
2022/10/30 11:21:22;;;;;;;9.90;8.15;;;14.40;99.90;;;;;;5118716;28;20027;-73
2022/10/30 11:24:54;;;;;;;9.60;7.78;;;14.30;99.90;;;;;;5117859;28;20027;-74
2022/10/30 11:27:50;;;;;;;11.10;7.55;;;13.80;99.90;;;;;;5104337;28;20035;-74
2022/10/30 11:30:46;;;;;;;9.55;8.10;;;14.10;99.90;;;;;;5142334;28;20356;-74
2022/10/30 11:33:42;;;;;;;9.15;7.18;;;14.40;99.90;;;;;;5124886;28;20041;-75
2022/10/30 11:36:37;;;;;;;9.70;7.55;;;14.60;99.90;;;;;;5139721;28;20197;-75
2022/10/30 11:39:30;;;;;;;8.93;7.50;;;14.80;99.90;;;;;;5125608;28;20018;-75
2022/10/30 11:42:22;;;;;;;9.65;7.53;;;14.80;99.90;;;;;;5137597;28;20041;-73
2022/10/30 11:45:25;;;;;;;9.70;7.97;;;14.50;99.90;;;;;;5137608;28;20396;-73
2022/10/30 11:48:32;;;;;;;11.90;8.82;;;14.50;99.90;;;;;;5138900;28;20035;-75
2022/10/30 11:51:32;;;;;;;13.82;11.10;;;14.10;99.90;;;;;;5138080;28;20026;-73
2022/10/30 11:54:29;;;;;;;14.52;10.95;;;13.90;99.90;;;;;;5138748;28;20027;-73
2022/10/30 11:57:45;;;;;;;14.38;11.27;;;13.90;99.90;;;;;;5138208;28;20050;-73
2022/10/30 12:00:40;;;;;;;15.20;10.57;;;13.90;99.90;;;;;;5141970;28;20010;-73
2022/10/30 12:03:40;;;;;;;13.35;10.10;;;14.00;99.90;;;;;;5179691;28;20053;-74
2022/10/30 12:06:31;;;;;;;13.10;9.52;;;14.00;99.90;;;;;;5190413;28;20058;-72
2022/10/30 12:09:25;;;;;;;12.15;8.80;;;14.00;99.90;;;;;;5200684;28;20032;-74
2022/10/30 12:12:25;;;;;;;11.85;8.60;;;14.10;99.90;;;;;;5196885;28;20037;-75
2022/10/30 12:15:19;;;;;;;11.60;8.77;;;14.30;99.90;;;;;;5196380;28;20025;-74
2022/10/30 12:18:22;;;;;;;15.30;10.25;;;14.50;99.90;;;;;;5198620;28;20029;-73
2022/10/30 12:21:17;;;;;;;11.18;8.70;;;14.40;99.90;;;;;;5189133;28;20040;-73
2022/10/30 12:24:36;;;;;;;15.18;9.90;;;14.00;99.90;;;;;;5189686;28;20033;-76
2022/10/30 12:27:32;;;;;;;13.15;10.10;;;14.00;99.90;;;;;;5199687;28;20044;-73
2022/10/30 12:30:27;;;;;;;10.77;8.70;;;14.10;99.90;;;;;;5203287;28;20030;-73
2022/10/30 12:33:27;;;;;;;12.20;8.80;;;14.00;99.90;;;;;;5201045;28;20015;-73
2022/10/30 12:36:29;;;;;;;12.90;9.25;;;14.00;99.90;;;;;;5203967;28;20055;-74
2022/10/30 12:39:28;;;;;;;12.63;8.48;;;13.90;99.90;;;;;;5204961;28;20533;-75
2022/10/30 12:42:23;;;;;;;12.90;9.55;;;13.90;99.90;;;;;;5191363;28;20025;-73
2022/10/30 12:45:39;;;;;;;14.45;9.35;;;13.90;99.90;;;;;;5190257;28;20033;-73
2022/10/30 12:48:40;;;;;;;14.48;8.40;;;13.80;99.90;;;;;;5203485;28;20294;-73
2022/10/30 12:51:48;;;;;;;16.27;8.13;;;13.50;99.90;;;;;;5190261;28;20056;-73
2022/10/30 12:55:10;;;;;;;9.55;7.15;;;13.60;99.90;;;;;;5207421;28;20036;-75
2022/10/30 12:58:20;;;;;;;21.77;9.85;;;13.80;99.90;;;;;;5189800;28;20043;-73
2022/10/30 13:01:23;;;;;;;22.63;9.30;;;13.70;99.90;;;;;;5203150;28;20025;-74
2022/10/30 13:04:16;;;;;;;14.07;9.10;;;13.50;99.90;;;;;;5169613;28;20045;-74
2022/10/30 13:07:21;;;;;;;12.32;8.52;;;13.50;99.90;;;;;;5182776;28;20032;-75
2022/10/30 13:10:35;;;;;;;12.65;9.43;;;13.50;99.90;;;;;;5184428;28;20052;-73
2022/10/30 13:13:39;;;;;;;15.68;9.80;;;13.60;99.90;;;;;;5183361;28;20040;-74
2022/10/30 13:16:31;;;;;;;14.65;8.50;;;13.50;99.90;;;;;;5183260;28;20034;-75
2022/10/30 13:19:23;;;;;;;18.98;9.23;;;13.60;99.90;;;;;;5167731;28;20030;-75
2022/10/30 13:22:20;;;;;;;17.52;9.70;;;13.60;99.90;;;;;;5162196;28;20033;-75
2022/10/30 13:25:20;;;;;;;31.42;9.88;;;13.50;99.90;;;;;;5163737;28;20423;-74
2022/10/30 13:28:27;;;;;;;42.92;11.07;;;13.30;99.90;;;;;;5164408;28;20030;-75
2022/10/30 13:31:38;;;;;;;33.20;10.80;;;13.20;99.90;;;;;;5149264;28;20033;-75
2022/10/30 13:34:51;;;;;;;16.33;9.75;;;12.90;99.90;;;;;;5180466;28;20022;-75
2022/10/30 13:37:55;;;;;;;23.00;11.15;;;12.90;99.90;;;;;;5170059;28;20033;-74
2022/10/30 13:41:11;;;;;;;17.27;10.48;;;13.00;99.90;;;;;;5183111;28;20259;-75
2022/10/30 13:44:23;;;;;;;;;;;13.10;99.90;;;;;;5185020;28;20025;-76
2022/10/30 13:47:17;;;;;;;15.80;9.95;;;13.10;99.90;;;;;;5178468;28;19911;-73
2022/10/30 13:50:35;;;;;;;16.63;10.23;;;13.00;99.90;;;;;;5184257;28;20044;-73
2022/10/30 13:53:31;;;;;;;16.98;10.40;;;12.90;99.90;;;;;;5185278;28;20056;-74
2022/10/30 13:56:25;;;;;;;11.50;9.05;;;12.90;99.90;;;;;;5170161;28;20287;-73
2022/10/30 13:59:45;;;;;;;14.27;9.82;;;13.10;99.90;;;;;;5164195;28;20323;-73
2022/10/30 14:02:52;;;;;;;16.40;10.73;;;13.00;99.90;;;;;;5178323;28;20043;-74
2022/10/30 14:06:01;;;;;;;15.32;9.90;;;13.10;99.90;;;;;;5192076;28;20282;-75
2022/10/30 14:09:27;;;;;;;13.30;9.85;;;13.00;99.90;;;;;;5221538;28;20031;-74
2022/10/30 14:13:10;;;;;;;20.52;11.50;;;13.10;99.90;;;;;;5224489;28;20033;-74
2022/10/30 14:16:05;;;;;;;18.30;12.27;;;13.20;99.90;;;;;;5126196;28;20050;-75
2022/10/30 14:19:04;;;;;;;19.25;13.05;;;13.30;99.90;;;;;;5138354;28;20030;-74
2022/10/30 14:21:59;;;;;;;15.73;10.88;;;12.90;99.90;;;;;;5101618;29;20547;-73
2022/10/30 14:24:50;;;;;;;17.17;11.55;;;12.70;99.90;;;;;;5101891;29;20085;-73
2022/10/30 14:27:53;;;;;;;19.15;12.48;;;12.80;99.90;;;;;;5101321;29;20395;-74
2022/10/30 14:31:06;;;;;;;18.88;12.50;;;13.00;99.90;;;;;;5101365;28;20037;-75
2022/10/30 14:34:02;;;;;;;18.02;11.30;;;13.10;99.90;;;;;;5118363;28;20031;-74
2022/10/30 14:36:56;;;;;;;21.02;12.45;;;13.20;99.90;;;;;;5120201;28;20166;-74
2022/10/30 14:39:50;;;;;;;20.50;12.60;;;13.10;99.90;;;;;;5121066;28;20344;-75
2022/10/30 14:42:53;;;;;;;18.55;12.80;;;12.70;99.90;;;;;;5107818;29;20635;-75
2022/10/30 14:45:51;;;;;;;18.25;12.57;;;12.70;99.90;;;;;;5120422;28;20027;-73
2022/10/30 14:49:01;;;;;;;15.93;11.25;;;12.70;99.90;;;;;;5120723;28;20023;-75
2022/10/30 14:52:14;;;;;;;17.58;12.63;;;12.70;99.90;;;;;;5171573;28;20041;-75
2022/10/30 14:55:30;;;;;;;19.20;12.25;;;12.60;99.90;;;;;;5189444;28;20032;-75
2022/10/30 14:58:25;;;;;;;20.05;13.23;;;12.60;99.90;;;;;;5202659;28;20036;-75
2022/10/30 15:01:35;;;;;;;18.70;12.60;;;12.50;99.90;;;;;;5202938;28;20032;-75
2022/10/30 15:04:38;;;;;;;17.55;10.93;;;12.50;99.90;;;;;;5161151;28;20319;-75
2022/10/30 15:08:09;;;;;;;18.05;12.25;;;12.60;99.90;;;;;;5181820;28;20339;-74
2022/10/30 15:11:34;;;;;;;18.05;12.93;;;12.70;99.90;;;;;;5162782;28;20415;-75
2022/10/30 15:14:32;;;;;;;17.63;11.50;;;12.60;99.90;;;;;;5161668;28;20041;-74
2022/10/30 15:17:23;;;;;;;19.42;12.48;;;12.50;99.90;;;;;;5181632;28;20036;-73
2022/10/30 15:20:23;;;;;;;15.60;11.02;;;12.50;99.90;;;;;;5168371;28;20024;-75